Kyst — LHYE — position and weather

sailwx.info

Track history (hours):
 
Tides and Currents Weather Stations Pressure Air Temp Water Temp Dewpoint Dewpoint Depression Visibility Wind Speed Wind Dir Waves Ship Positions

Kyst

Last reported at 2018-Feb-21 14:59 UTC. Time now 2018-Feb-21 15:31 UTC.
Position N 68°57' E 016°07'.

Length 48 m.

Type: Cargo ship. MMSI: 259336000.

Date/timePositionNaut miles runAvg speedWind from/ knotsBaromVisibWave heightAir tempDewpointWater temp
2018-Feb-21 14:59N 68°57' E 016°07'510.6
2018-Feb-21 14:30N 68°55' E 016°20'510.6
2018-Feb-21 13:59N 68°51' E 016°32'4 7.6
2018-Feb-21 13:30N 68°48' E 016°33'0 0.1
2018-Feb-21 12:58N 68°48' E 016°33'0 0.0
2018-Feb-21 12:28N 68°48' E 016°33'0 0.0
2018-Feb-21 11:58N 68°48' E 016°33'0 0.0
2018-Feb-21 11:29N 68°48' E 016°33'0 0.0
2018-Feb-21 10:58N 68°48' E 016°33'0 0.0
2018-Feb-21 10:29N 68°48' E 016°33'0 0.0
2018-Feb-21 09:59N 68°48' E 016°33'0 0.0
2018-Feb-21 09:28N 68°48' E 016°33'0 0.0
2018-Feb-21 08:58N 68°48' E 016°33'0 0.0
2018-Feb-21 08:29N 68°48' E 016°33'0 0.0
2018-Feb-21 08:00N 68°48' E 016°33'0 0.0
2018-Feb-21 07:30N 68°48' E 016°33'0 0.0
2018-Feb-21 07:00N 68°48' E 016°33'0 0.0
2018-Feb-21 06:30N 68°48' E 016°33'0 0.0
2018-Feb-21 05:54N 68°48' E 016°33'0 0.0
2018-Feb-21 05:30N 68°48' E 016°33'0 0.0
2018-Feb-21 04:55N 68°48' E 016°33'0 0.0
2018-Feb-21 04:28N 68°48' E 016°33'0 0.0
2018-Feb-21 03:58N 68°48' E 016°33'0 0.3
2018-Feb-21 03:29N 68°48' E 016°33'0 0.2
2018-Feb-21 03:00N 68°48' E 016°34'3 5.8
2018-Feb-21 02:29N 68°51' E 016°35'4 8.3
2018-Feb-21 02:00N 68°53' E 016°26'4 8.3
2018-Feb-21 01:30N 68°56' E 016°17'4 8.3
2018-Feb-21 00:59N 68°57' E 016°06'4 8.6
2018-Feb-21 00:30N 68°59' E 015°55'4 8.8
2018-Feb-20 23:59N 68°59' E 015°43'4 8.4
2018-Feb-20 23:29N 68°55' E 015°35'4 8.9
2018-Feb-20 23:00N 68°51' E 015°30'4 8.7
2018-Feb-20 22:30N 68°47' E 015°26'5 9.2
2018-Feb-20 22:00N 68°43' E 015°26'5 9.0
2018-Feb-20 21:29N 68°38' E 015°23'3 5.9
2018-Feb-20 21:00N 68°36' E 015°20'0 0.0
2018-Feb-20 20:30N 68°36' E 015°20'0 0.0
2018-Feb-20 20:00N 68°36' E 015°20'0 0.0
2018-Feb-20 19:30N 68°36' E 015°20'4 7.3
2018-Feb-20 19:00N 68°39' E 015°23'5 9.4
2018-Feb-20 18:30N 68°44' E 015°25'5 9.9
2018-Feb-20 18:00N 68°48' E 015°27'510.3
2018-Feb-20 17:29N 68°53' E 015°33'510.4
2018-Feb-20 17:00N 68°58' E 015°38'5 9.6
2018-Feb-20 16:30N 68°59' E 015°52'510.5
2018-Feb-20 16:00N 68°57' E 016°06'510.8
2018-Feb-20 15:30N 68°55' E 016°19'610.7
2018-Feb-20 14:59N 68°52' E 016°31'4 8.0
2018-Feb-20 14:30N 68°48' E 016°33'0 0.4
2018-Feb-20 14:00N 68°48' E 016°33'0 0.0
2018-Feb-20 13:28N 68°48' E 016°33'0 0.0
2018-Feb-20 12:58N 68°48' E 016°33'0 0.0
2018-Feb-20 12:28N 68°48' E 016°33'0 0.0
2018-Feb-20 11:58N 68°48' E 016°33'0 0.0
2018-Feb-20 11:28N 68°48' E 016°33'0 0.0
2018-Feb-20 10:58N 68°48' E 016°33'0 0.0
2018-Feb-20 10:28N 68°48' E 016°33'0 0.0
2018-Feb-20 09:59N 68°48' E 016°33'0 0.0
2018-Feb-20 09:29N 68°48' E 016°33'0 0.0
2018-Feb-20 08:59N 68°48' E 016°33'0 0.0
2018-Feb-20 08:29N 68°48' E 016°33'0 0.0
2018-Feb-20 07:58N 68°48' E 016°33'0 0.0
2018-Feb-20 07:28N 68°48' E 016°33'0 0.0
2018-Feb-20 06:58N 68°48' E 016°33'0 0.0
2018-Feb-20 06:28N 68°48' E 016°33'0 0.0
2018-Feb-20 05:58N 68°48' E 016°33'0 0.0
2018-Feb-20 05:28N 68°48' E 016°33'0 0.0
2018-Feb-20 04:59N 68°48' E 016°33'0 0.0
2018-Feb-20 04:29N 68°48' E 016°33'0 0.0
2018-Feb-20 03:54N 68°48' E 016°33'0 0.0
2018-Feb-20 03:30N 68°48' E 016°33'0 0.0
2018-Feb-20 02:59N 68°48' E 016°33'0 0.0
2018-Feb-20 02:29N 68°48' E 016°33'2 4.7
2018-Feb-20 02:00N 68°50' E 016°36'4 7.4
2018-Feb-20 01:30N 68°52' E 016°28'4 8.2
2018-Feb-20 01:00N 68°55' E 016°20'4 8.2
2018-Feb-20 00:30N 68°57' E 016°10'4 8.5
2018-Feb-20 00:00N 68°58' E 015°59'4 8.4
2018-Feb-19 23:29N 68°59' E 015°47'4 8.0
2018-Feb-19 23:00N 68°57' E 015°37'4 8.8
2018-Feb-19 22:30N 68°53' E 015°32'4 8.7
2018-Feb-19 22:00N 68°49' E 015°27'4 8.7
2018-Feb-19 21:30N 68°45' E 015°25'4 8.7
2018-Feb-19 21:00N 68°40' E 015°26'4 8.7
2018-Feb-19 20:30N 68°36' E 015°21'1 1.6
2018-Feb-19 19:57N 68°36' E 015°20'0 0.0
2018-Feb-19 19:30N 68°36' E 015°20'2 4.1
2018-Feb-19 19:00N 68°38' E 015°22'510.0
2018-Feb-19 18:30N 68°42' E 015°26'510.1
2018-Feb-19 18:00N 68°47' E 015°26'510.2
2018-Feb-19 17:30N 68°52' E 015°31'510.5
2018-Feb-19 17:00N 68°57' E 015°37'5 9.4
2018-Feb-19 16:30N 68°59' E 015°49'510.2
2018-Feb-19 16:00N 68°58' E 016°03'510.7
2018-Feb-19 15:29N 68°56' E 016°17'510.8
2018-Feb-19 14:59N 68°52' E 016°28'4 8.7
2018-Feb-19 14:30N 68°49' E 016°35'1 1.4
2018-Feb-19 13:54N 68°48' E 016°34'0 0.2
2018-Feb-19 13:30N 68°48' E 016°34'0 0.0
2018-Feb-19 12:58N 68°48' E 016°34'0 0.8
2018-Feb-19 12:28N 68°48' E 016°33'0 0.0
2018-Feb-19 11:58N 68°48' E 016°33'0 0.0
2018-Feb-19 11:30N 68°48' E 016°33'0 0.0
2018-Feb-19 10:59N 68°48' E 016°33'0 0.0
2018-Feb-19 10:29N 68°48' E 016°33'0 0.0
2018-Feb-19 09:59N 68°48' E 016°33'0 0.0
2018-Feb-19 09:29N 68°48' E 016°33'0 0.0
2018-Feb-19 08:59N 68°48' E 016°33'0 0.0
2018-Feb-19 08:29N 68°48' E 016°33'0 0.0
2018-Feb-19 07:58N 68°48' E 016°33'0 0.0
2018-Feb-19 07:28N 68°48' E 016°33'0 0.0
2018-Feb-19 07:00N 68°48' E 016°33'0 0.0
2018-Feb-19 06:30N 68°48' E 016°33'0 0.0
2018-Feb-19 05:58N 68°48' E 016°33'0 0.0
2018-Feb-19 05:28N 68°48' E 016°33'0 0.0
2018-Feb-19 05:00N 68°48' E 016°33'0 0.0
2018-Feb-19 04:30N 68°48' E 016°33'0 0.0
2018-Feb-19 04:00N 68°48' E 016°33'0 0.0
2018-Feb-19 03:30N 68°48' E 016°33'0 0.0
2018-Feb-19 03:00N 68°48' E 016°33'0 0.0
2018-Feb-19 02:28N 68°48' E 016°33'0 0.0
2018-Feb-19 02:00N 68°48' E 016°33'0 0.0
2018-Feb-19 01:30N 68°48' E 016°33'0 0.0
2018-Feb-19 01:00N 68°48' E 016°33'0 0.0
2018-Feb-19 00:28N 68°48' E 016°33'0 0.0
2018-Feb-18 23:58N 68°48' E 016°33'1 2.1
2018-Feb-18 23:30N 68°48' E 016°34'4 8.7
2018-Feb-18 23:00N 68°53' E 016°39'4 8.4
2018-Feb-18 22:30N 68°57' E 016°38'4 7.7
2018-Feb-18 22:00N 69°00' E 016°35'1 2.1
2018-Feb-18 21:28N 69°01' E 016°33'0 0.0
2018-Feb-18 20:58N 69°01' E 016°33'0 0.0
2018-Feb-18 20:23N 69°01' E 016°33'0 0.0
2018-Feb-18 19:57N 69°01' E 016°33'0 0.2
2018-Feb-18 19:30N 69°01' E 016°33'0 0.2
2018-Feb-18 19:00N 69°01' E 016°33'2 3.0
2018-Feb-18 18:30N 69°00' E 016°36'510.5
2018-Feb-18 17:59N 68°58' E 016°49'510.5
2018-Feb-18 17:30N 68°54' E 016°59'4 8.4
2018-Feb-18 17:00N 68°50' E 017°04'0 0.1
2018-Feb-18 16:30N 68°50' E 017°04'0 0.0
2018-Feb-18 16:00N 68°50' E 017°04'0 0.0
2018-Feb-18 15:29N 68°50' E 017°04'0 0.0
2018-Feb-18 15:00N 68°50' E 017°04'0 0.0
2018-Feb-18 14:30N 68°50' E 017°04'0 0.0
2018-Feb-18 14:00N 68°50' E 017°04'0 0.0
2018-Feb-18 13:30N 68°50' E 017°04'0 0.0
2018-Feb-18 13:00N 68°50' E 017°04'0 0.0
2018-Feb-18 12:25N 68°50' E 017°04'0 0.0
2018-Feb-18 11:54N 68°50' E 017°04'0 0.0
2018-Feb-18 11:30N 68°50' E 017°04'0 0.0
2018-Feb-18 11:00N 68°50' E 017°04'0 0.0
2018-Feb-18 10:29N 68°50' E 017°04'0 0.0
2018-Feb-18 09:59N 68°50' E 017°04'0 0.0
2018-Feb-18 09:29N 68°50' E 017°04'0 0.0
2018-Feb-18 08:59N 68°50' E 017°04'0 0.0
2018-Feb-18 08:29N 68°50' E 017°04'0 0.0
2018-Feb-18 07:59N 68°50' E 017°04'0 0.0
2018-Feb-18 07:29N 68°50' E 017°04'0 0.0
2018-Feb-18 07:00N 68°50' E 017°04'0 0.0
2018-Feb-18 06:29N 68°50' E 017°04'0 0.0
2018-Feb-18 05:58N 68°50' E 017°04'0 0.0
2018-Feb-18 05:28N 68°50' E 017°04'0 0.0
2018-Feb-18 05:00N 68°50' E 017°04'0 0.0
2018-Feb-18 04:30N 68°50' E 017°04'0 0.0
2018-Feb-18 04:00N 68°50' E 017°04'0 0.0
2018-Feb-18 03:29N 68°50' E 017°04'0 0.0
2018-Feb-18 02:59N 68°50' E 017°04'0 0.0
2018-Feb-18 02:27N 68°50' E 017°04'0 0.0
2018-Feb-18 01:59N 68°50' E 017°04'0 0.0
2018-Feb-18 01:30N 68°50' E 017°04'0 0.0
2018-Feb-18 00:58N 68°50' E 017°04'0 0.0
2018-Feb-18 00:28N 68°50' E 017°04'0 0.0
2018-Feb-17 23:58N 68°50' E 017°04'0 0.0
2018-Feb-17 23:30N 68°50' E 017°04'0 0.0
2018-Feb-17 23:00N 68°50' E 017°04'0 0.0
2018-Feb-17 22:30N 68°50' E 017°04'0 0.0
2018-Feb-17 21:59N 68°50' E 017°04'0 0.0
2018-Feb-17 21:26N 68°50' E 017°04'0 0.0
2018-Feb-17 21:00N 68°50' E 017°04'0 0.0
2018-Feb-17 20:25N 68°50' E 017°04'0 0.0
2018-Feb-17 19:55N 68°50' E 017°04'0 0.0
2018-Feb-17 19:30N 68°50' E 017°04'0 0.0
2018-Feb-17 18:58N 68°50' E 017°04'0 0.0
2018-Feb-17 18:29N 68°50' E 017°04'0 0.0
2018-Feb-17 17:59N 68°50' E 017°04'0 0.0
2018-Feb-17 17:28N 68°50' E 017°04'0 0.0
2018-Feb-17 16:58N 68°50' E 017°04'0 0.0
2018-Feb-17 16:28N 68°50' E 017°04'0 0.0
2018-Feb-17 15:58N 68°50' E 017°04'0 0.0
2018-Feb-17 15:27N 68°50' E 017°04'0 0.0
2018-Feb-17 15:00N 68°50' E 017°04'0 0.0
2018-Feb-17 14:23N 68°50' E 017°04'0 0.0
2018-Feb-17 13:59N 68°50' E 017°04'0 0.0
2018-Feb-17 13:29N 68°50' E 017°04'0 0.0
2018-Feb-17 12:58N 68°50' E 017°04'0 0.0
2018-Feb-17 12:28N 68°50' E 017°04'0 0.0
2018-Feb-17 11:58N 68°50' E 017°04'0 0.0
2018-Feb-17 11:29N 68°50' E 017°04'0 0.0
2018-Feb-17 10:59N 68°50' E 017°04'0 0.0
2018-Feb-17 10:27N 68°50' E 017°04'0 0.0
2018-Feb-17 09:57N 68°50' E 017°04'0 0.0
2018-Feb-17 09:30N 68°50' E 017°04'0 0.0
2018-Feb-17 08:59N 68°50' E 017°04'0 0.0
2018-Feb-17 08:28N 68°50' E 017°04'0 0.0
2018-Feb-17 07:58N 68°50' E 017°04'0 0.0
2018-Feb-17 07:30N 68°50' E 017°04'0 0.0
2018-Feb-17 06:55N 68°50' E 017°04'0 0.0
2018-Feb-17 06:27N 68°50' E 017°04'0 0.0
2018-Feb-17 05:59N 68°50' E 017°04'0 0.0
2018-Feb-17 05:29N 68°50' E 017°04'0 0.0
2018-Feb-17 05:00N 68°50' E 017°04'0 0.0
2018-Feb-17 04:30N 68°50' E 017°04'0 0.0
2018-Feb-17 03:58N 68°50' E 017°04'0 0.0
2018-Feb-17 03:28N 68°50' E 017°04'0 0.0
2018-Feb-17 02:58N 68°50' E 017°04'0 0.0
2018-Feb-17 02:30N 68°50' E 017°04'0 0.0
2018-Feb-17 02:00N 68°50' E 017°04'0 0.0
2018-Feb-17 01:30N 68°50' E 017°04'0 0.0
2018-Feb-17 01:00N 68°50' E 017°04'0 0.0
2018-Feb-17 00:30N 68°50' E 017°04'0 0.0
2018-Feb-17 00:00N 68°50' E 017°04'0 0.0
2018-Feb-16 23:30N 68°50' E 017°04'0 0.0
2018-Feb-16 23:00N 68°50' E 017°04'0 0.0
2018-Feb-16 22:28N 68°50' E 017°04'0 0.0
2018-Feb-16 21:59N 68°50' E 017°04'0 0.0
2018-Feb-16 21:29N 68°50' E 017°04'0 0.0
2018-Feb-16 21:00N 68°50' E 017°04'0 0.0
2018-Feb-16 20:26N 68°50' E 017°04'2 4.7
2018-Feb-16 20:00N 68°52' E 017°03'510.2
2018-Feb-16 19:30N 68°56' E 016°54'510.0
2018-Feb-16 19:00N 68°59' E 016°43'2 4.8
2018-Feb-16 18:29N 68°57' E 016°37'0 0.0
2018-Feb-16 17:58N 68°57' E 016°37'0 0.0
2018-Feb-16 17:30N 68°57' E 016°37'0 0.0
2018-Feb-16 17:00N 68°57' E 016°37'0 0.0
2018-Feb-16 16:29N 68°57' E 016°37'0 0.0
2018-Feb-16 15:59N 68°57' E 016°37'0 0.0
2018-Feb-16 15:29N 68°57' E 016°37'0 0.1
2018-Feb-16 15:00N 68°57' E 016°37'3 5.5
2018-Feb-16 14:30N 68°59' E 016°44'4 8.7
2018-Feb-16 14:00N 68°60' E 016°56'5 8.9
2018-Feb-16 13:29N 68°60' E 017°08'4 8.3
2018-Feb-16 13:00N 69°02' E 017°18'4 8.7
2018-Feb-16 12:30N 69°05' E 017°26'4 8.6
2018-Feb-16 11:59N 69°07' E 017°37'4 8.7
2018-Feb-16 11:30N 69°09' E 017°48'4 8.7
2018-Feb-16 10:59N 69°11' E 017°60'4 7.4
2018-Feb-16 10:30N 69°14' E 017°58'4 8.3
2018-Feb-16 10:00N 69°19' E 017°59'4 8.5
2018-Feb-16 09:30N 69°22' E 018°06'4 8.4
2018-Feb-16 09:00N 69°26' E 018°07'4 7.6
2018-Feb-16 08:29N 69°29' E 018°14'4 8.4
2018-Feb-16 07:59N 69°31' E 018°25'4 8.2
2018-Feb-16 07:30N 69°32' E 018°35'4 7.6
2018-Feb-16 07:00N 69°34' E 018°46'4 8.4
2018-Feb-16 06:30N 69°37' E 018°54'4 7.4
2018-Feb-16 06:00N 69°40' E 018°60'4 8.4
2018-Feb-16 05:30N 69°44' E 019°04'4 8.0
2018-Feb-16 05:00N 69°46' E 019°13'4 8.3
2018-Feb-16 04:29N 69°48' E 019°24'4 8.5
2018-Feb-16 04:00N 69°49' E 019°36'4 7.0
2018-Feb-16 03:30N 69°48' E 019°45'4 8.8
2018-Feb-16 03:00N 69°43' E 019°45'4 8.8
2018-Feb-16 02:30N 69°39' E 019°45'2 4.7
2018-Feb-16 02:00N 69°37' E 019°44'0 0.0
2018-Feb-16 01:30N 69°37' E 019°44'0 0.0
2018-Feb-16 00:59N 69°37' E 019°44'0 0.0
2018-Feb-16 00:29N 69°37' E 019°44'0 0.0
2018-Feb-15 23:59N 69°37' E 019°44'3 6.6
2018-Feb-15 23:30N 69°40' E 019°45'510.1
2018-Feb-15 22:59N 69°45' E 019°45'5 9.1
2018-Feb-15 22:30N 69°49' E 019°41'510.6
2018-Feb-15 22:00N 69°48' E 019°27'510.7
2018-Feb-15 21:30N 69°46' E 019°12'510.3
2018-Feb-15 21:00N 69°42' E 019°03'510.9
2018-Feb-15 20:30N 69°37' E 018°55'611.2
2018-Feb-15 20:00N 69°33' E 018°44'611.1
2018-Feb-15 19:30N 69°31' E 018°29'510.4
2018-Feb-15 18:59N 69°29' E 018°15'5 9.3
2018-Feb-15 18:29N 69°26' E 018°07'510.2
2018-Feb-15 18:00N 69°21' E 018°05'5 9.7
2018-Feb-15 17:29N 69°16' E 017°58'5 9.9
2018-Feb-15 17:01N 69°12' E 018°01'5 9.5
2018-Feb-15 16:30N 69°09' E 017°50'510.3
2018-Feb-15 15:59N 69°06' E 017°37'510.3
2018-Feb-15 15:30N 69°02' E 017°31'510.2
2018-Feb-15 15:00N 68°57' E 017°27'4 8.1
2018-Feb-15 14:30N 68°53' E 017°32'4 8.6
2018-Feb-15 13:59N 68°54' E 017°43'0 0.0
2018-Feb-15 13:29N 68°54' E 017°43'0 0.0
2018-Feb-15 12:58N 68°54' E 017°43'0 0.0
2018-Feb-15 12:28N 68°54' E 017°43'0 0.0
2018-Feb-15 11:58N 68°54' E 017°43'0 0.0
2018-Feb-15 11:30N 68°54' E 017°43'0 0.0
2018-Feb-15 11:00N 68°54' E 017°43'0 0.0
2018-Feb-15 10:30N 68°54' E 017°43'0 0.0
2018-Feb-15 10:00N 68°54' E 017°43'0 0.0
2018-Feb-15 09:28N 68°54' E 017°43'0 0.0
2018-Feb-15 08:58N 68°54' E 017°43'0 0.0
2018-Feb-15 08:29N 68°54' E 017°43'0 0.0
2018-Feb-15 08:00N 68°54' E 017°43'1 2.6
2018-Feb-15 07:30N 68°54' E 017°40'4 8.5
2018-Feb-15 07:00N 68°53' E 017°28'4 8.2
2018-Feb-15 06:30N 68°56' E 017°19'4 8.8
2018-Feb-15 06:00N 68°56' E 017°07'4 8.8
2018-Feb-15 05:30N 68°55' E 016°55'4 8.7
2018-Feb-15 05:00N 68°54' E 016°43'4 8.3
2018-Feb-15 04:30N 68°52' E 016°33'4 8.1
2018-Feb-15 04:00N 68°54' E 016°23'4 8.3
2018-Feb-15 03:30N 68°56' E 016°13'4 7.9
2018-Feb-15 03:00N 68°58' E 016°03'4 8.0
2018-Feb-15 02:30N 68°59' E 015°52'5 8.9
2018-Feb-15 01:59N 68°58' E 015°39'4 8.3
2018-Feb-15 01:30N 68°55' E 015°34'4 8.6
2018-Feb-15 00:59N 68°51' E 015°29'4 9.2
2018-Feb-15 00:30N 68°46' E 015°26'5 9.3
2018-Feb-14 23:59N 68°42' E 015°26'4 8.9
2018-Feb-14 23:29N 68°37' E 015°22'2 3.6
2018-Feb-14 22:58N 68°36' E 015°20'0 0.0
2018-Feb-14 22:28N 68°36' E 015°20'0 0.0
2018-Feb-14 21:56N 68°36' E 015°20'3 7.1
2018-Feb-14 21:30N 68°39' E 015°23'5 9.4
2018-Feb-14 21:00N 68°43' E 015°26'5 9.9
2018-Feb-14 20:30N 68°48' E 015°26'510.3
2018-Feb-14 20:00N 68°53' E 015°32'510.1
2018-Feb-14 19:30N 68°57' E 015°37'4 8.9
2018-Feb-14 19:00N 68°59' E 015°49'510.2
2018-Feb-14 18:30N 68°58' E 016°03'510.5
2018-Feb-14 18:00N 68°56' E 016°16'510.6
2018-Feb-14 17:30N 68°53' E 016°28'510.1
2018-Feb-14 17:00N 68°50' E 016°40'510.6
2018-Feb-14 16:30N 68°45' E 016°41'510.6
2018-Feb-14 16:00N 68°39' E 016°38'510.4
2018-Feb-14 15:30N 68°34' E 016°34'2 4.6
2018-Feb-14 14:58N 68°32' E 016°38'0 0.0
2018-Feb-14 14:30N 68°32' E 016°38'0 0.0
2018-Feb-14 14:00N 68°32' E 016°38'0 0.0
2018-Feb-14 13:30N 68°32' E 016°38'0 0.0
2018-Feb-14 13:00N 68°32' E 016°38'0 0.0
2018-Feb-14 12:28N 68°32' E 016°38'0 0.0
2018-Feb-14 11:58N 68°32' E 016°38'0 0.0
2018-Feb-14 11:30N 68°32' E 016°38'0 0.0
2018-Feb-14 11:00N 68°32' E 016°38'0 0.0
2018-Feb-14 10:30N 68°32' E 016°38'0 0.0
2018-Feb-14 10:00N 68°32' E 016°38'0 0.0
2018-Feb-14 09:30N 68°32' E 016°38'0 0.0
2018-Feb-14 08:58N 68°32' E 016°38'0 0.0
2018-Feb-14 08:29N 68°32' E 016°38'1 2.9
2018-Feb-14 08:00N 68°34' E 016°35'4 7.9
2018-Feb-14 07:30N 68°37' E 016°34'5 8.5
2018-Feb-14 06:58N 68°42' E 016°40'4 7.8
2018-Feb-14 06:30N 68°45' E 016°38'3 6.3
2018-Feb-14 06:00N 68°48' E 016°34'0 0.6
2018-Feb-14 05:28N 68°48' E 016°33'0 0.0
2018-Feb-14 05:00N 68°48' E 016°33'0 0.0
2018-Feb-14 04:30N 68°48' E 016°33'0 0.0
2018-Feb-14 04:00N 68°48' E 016°33'0 0.0
2018-Feb-14 03:30N 68°48' E 016°33'0 0.0
2018-Feb-14 02:59N 68°48' E 016°33'0 0.0
2018-Feb-14 02:30N 68°48' E 016°33'0 0.0
2018-Feb-14 01:53N 68°48' E 016°33'0 0.0
2018-Feb-14 01:30N 68°48' E 016°33'0 0.0
2018-Feb-14 01:00N 68°48' E 016°33'0 0.0
2018-Feb-14 00:28N 68°48' E 016°33'0 0.0
2018-Feb-13 23:58N 68°48' E 016°33'1 1.2
2018-Feb-13 23:30N 68°48' E 016°34'3 6.0
2018-Feb-13 23:00N 68°51' E 016°32'4 8.4
2018-Feb-13 22:30N 68°54' E 016°23'4 8.3
2018-Feb-13 21:59N 68°56' E 016°14'4 8.3
2018-Feb-13 21:29N 68°58' E 016°03'4 8.2
2018-Feb-13 21:00N 68°59' E 015°52'4 8.8
2018-Feb-13 20:30N 68°58' E 015°40'4 8.4
2018-Feb-13 20:00N 68°54' E 015°34'5 8.9
2018-Feb-13 19:28N 68°50' E 015°29'4 8.8
2018-Feb-13 19:00N 68°46' E 015°26'5 9.5
2018-Feb-13 18:30N 68°41' E 015°26'4 8.8
2018-Feb-13 18:00N 68°37' E 015°22'2 3.7
2018-Feb-13 17:29N 68°36' E 015°20'0 0.0
2018-Feb-13 16:59N 68°36' E 015°20'0 0.0
2018-Feb-13 16:29N 68°36' E 015°20'0 0.0
2018-Feb-13 15:59N 68°36' E 015°20'3 5.4
2018-Feb-13 15:28N 68°38' E 015°23'4 9.3
2018-Feb-13 15:00N 68°42' E 015°26'5 9.0
2018-Feb-13 14:30N 68°47' E 015°26'5 9.9
2018-Feb-13 14:00N 68°52' E 015°31'5 9.9
2018-Feb-13 13:30N 68°56' E 015°35'4 8.6
2018-Feb-13 13:00N 68°59' E 015°45'510.1
2018-Feb-13 12:30N 68°58' E 015°59'510.5
2018-Feb-13 11:59N 68°56' E 016°13'510.7
2018-Feb-13 11:30N 68°53' E 016°25'510.1
2018-Feb-13 10:59N 68°50' E 016°36'2 5.1
2018-Feb-13 10:30N 68°48' E 016°33'0 0.0
2018-Feb-13 10:00N 68°48' E 016°33'0 0.0
2018-Feb-13 09:30N 68°48' E 016°33'0 0.0
2018-Feb-13 09:00N 68°48' E 016°33'0 0.0
2018-Feb-13 08:30N 68°48' E 016°33'0 0.0
2018-Feb-13 07:59N 68°48' E 016°33'0 0.0
2018-Feb-13 07:30N 68°48' E 016°33'0 0.0
2018-Feb-13 07:00N 68°48' E 016°33'0 0.0
2018-Feb-13 06:29N 68°48' E 016°33'0 0.0
2018-Feb-13 06:00N 68°48' E 016°33'0 0.0
2018-Feb-13 05:30N 68°48' E 016°33'0 0.0
2018-Feb-13 04:58N 68°48' E 016°33'0 0.0
2018-Feb-13 04:30N 68°48' E 016°33'0 0.0
2018-Feb-13 03:59N 68°48' E 016°33'0 0.0
2018-Feb-13 03:29N 68°48' E 016°33'0 0.0
2018-Feb-13 02:58N 68°48' E 016°33'0 0.0
2018-Feb-13 02:29N 68°48' E 016°33'0 0.0
2018-Feb-13 01:59N 68°48' E 016°33'0 0.0
2018-Feb-13 01:29N 68°48' E 016°33'0 0.0
2018-Feb-13 01:00N 68°48' E 016°33'0 0.0
2018-Feb-13 00:30N 68°48' E 016°33'3 6.4
2018-Feb-13 00:00N 68°50' E 016°40'4 8.3
2018-Feb-12 23:30N 68°53' E 016°48'4 8.3
2018-Feb-12 23:00N 68°55' E 016°57'4 8.4
2018-Feb-12 22:30N 68°58' E 017°06'4 8.6
2018-Feb-12 22:00N 69°01' E 017°15'4 8.5
2018-Feb-12 21:30N 69°04' E 017°22'4 8.4
2018-Feb-12 21:00N 69°06' E 017°32'4 8.7
2018-Feb-12 20:29N 69°08' E 017°43'4 8.8
2018-Feb-12 20:00N 69°10' E 017°54'3 6.6
2018-Feb-12 19:30N 69°13' E 017°59'4 7.9
2018-Feb-12 19:00N 69°17' E 017°58'4 7.9
2018-Feb-12 18:30N 69°20' E 018°03'4 8.0
2018-Feb-12 18:00N 69°24' E 018°06'4 8.2
2018-Feb-12 17:30N 69°28' E 018°08'4 8.4
2018-Feb-12 17:00N 69°30' E 018°18'4 8.6
2018-Feb-12 16:29N 69°32' E 018°30'4 8.6
2018-Feb-12 15:59N 69°33' E 018°42'4 8.8
2018-Feb-12 15:30N 69°36' E 018°52'4 8.4
2018-Feb-12 15:00N 69°39' E 018°59'4 8.5
2018-Feb-12 14:30N 69°43' E 019°04'4 8.2
2018-Feb-12 13:58N 69°46' E 019°12'4 8.5
2018-Feb-12 13:30N 69°48' E 019°23'4 8.7
2018-Feb-12 13:00N 69°49' E 019°35'4 7.0
2018-Feb-12 12:29N 69°48' E 019°45'4 8.8
2018-Feb-12 11:59N 69°43' E 019°45'4 8.8
2018-Feb-12 11:30N 69°39' E 019°45'3 5.3
2018-Feb-12 11:00N 69°37' E 019°44'0 0.0
2018-Feb-12 10:25N 69°37' E 019°44'0 0.0
2018-Feb-12 09:56N 69°37' E 019°44'0 0.0
2018-Feb-12 09:30N 69°37' E 019°44'0 0.1
2018-Feb-12 09:00N 69°37' E 019°44'5 9.6
2018-Feb-12 08:30N 69°41' E 019°45'5 9.9
2018-Feb-12 07:59N 69°46' E 019°49'5 9.7
2018-Feb-12 07:30N 69°50' E 019°55'510.0
2018-Feb-12 07:00N 69°55' E 020°03'5 9.7
2018-Feb-12 06:30N 69°58' E 020°13'5 9.3
2018-Feb-12 06:00N 70°00' E 020°25'4 8.9
2018-Feb-12 05:30N 70°01' E 020°37'5 9.7
2018-Feb-12 05:00N 70°03' E 020°51'5 9.4
2018-Feb-12 04:30N 70°07' E 020°59'4 9.1
2018-Feb-12 04:00N 70°11' E 021°05'5 8.9
2018-Feb-12 03:30N 70°15' E 021°12'510.0
2018-Feb-12 03:00N 70°18' E 021°24'510.0
2018-Feb-12 02:29N 70°22' E 021°34'5 9.5
2018-Feb-12 02:00N 70°25' E 021°45'5 9.8
2018-Feb-12 01:30N 70°26' E 021°59'5 9.9
2018-Feb-12 01:00N 70°27' E 022°13'510.2
2018-Feb-12 00:30N 70°28' E 022°28'5 9.7
2018-Feb-12 00:00N 70°29' E 022°42'5 8.9
2018-Feb-11 23:30N 70°31' E 022°55'5 9.0
2018-Feb-11 23:00N 70°33' E 023°06'4 9.0
2018-Feb-11 22:30N 70°37' E 023°15'5 8.9
2018-Feb-11 21:59N 70°40' E 023°24'4 8.8
2018-Feb-11 21:30N 70°44' E 023°32'4 8.8
2018-Feb-11 21:00N 70°47' E 023°41'5 9.3
2018-Feb-11 20:29N 70°50' E 023°52'5 9.4
2018-Feb-11 20:00N 70°53' E 024°03'5 9.5
2018-Feb-11 19:30N 70°56' E 024°14'5 9.8
2018-Feb-11 19:00N 70°59' E 024°25'4 8.8
2018-Feb-11 18:30N 71°01' E 024°37'510.1
2018-Feb-11 17:58N 70°60' E 024°52'510.0
2018-Feb-11 17:30N 70°59' E 025°07'5 9.9
2018-Feb-11 16:59N 70°59' E 025°23'510.9
2018-Feb-11 16:30N 70°56' E 025°35'5 9.5
2018-Feb-11 16:00N 70°56' E 025°49'5 9.1
2018-Feb-11 15:30N 70°58' E 026°03'  
Track history (hours):
 
Tides and Currents Weather Stations Pressure Air Temp Water Temp Dewpoint Dewpoint Depression Visibility Wind Speed Wind Dir Waves Ship Positions

Kyst

Last reported at 2018-Feb-21 14:59 UTC. Time now 2018-Feb-21 15:31 UTC.
Position N 68°57' E 016°07'.

Length 48 m.

Type: Cargo ship. MMSI: 259336000.

Date/timePositionNaut miles runAvg speedWind from/ knotsBaromVisibWave heightAir tempDewpointWater temp
2018-Feb-21 14:59N 68°57' E 016°07'510.6
2018-Feb-21 14:30N 68°55' E 016°20'510.6
2018-Feb-21 13:59N 68°51' E 016°32'4 7.6
2018-Feb-21 13:30N 68°48' E 016°33'0 0.1
2018-Feb-21 12:58N 68°48' E 016°33'0 0.0
2018-Feb-21 12:28N 68°48' E 016°33'0 0.0
2018-Feb-21 11:58N 68°48' E 016°33'0 0.0
2018-Feb-21 11:29N 68°48' E 016°33'0 0.0
2018-Feb-21 10:58N 68°48' E 016°33'0 0.0
2018-Feb-21 10:29N 68°48' E 016°33'0 0.0
2018-Feb-21 09:59N 68°48' E 016°33'0 0.0
2018-Feb-21 09:28N 68°48' E 016°33'0 0.0
2018-Feb-21 08:58N 68°48' E 016°33'0 0.0
2018-Feb-21 08:29N 68°48' E 016°33'0 0.0
2018-Feb-21 08:00N 68°48' E 016°33'0 0.0
2018-Feb-21 07:30N 68°48' E 016°33'0 0.0
2018-Feb-21 07:00N 68°48' E 016°33'0 0.0
2018-Feb-21 06:30N 68°48' E 016°33'0 0.0
2018-Feb-21 05:54N 68°48' E 016°33'0 0.0
2018-Feb-21 05:30N 68°48' E 016°33'0 0.0
2018-Feb-21 04:55N 68°48' E 016°33'0 0.0
2018-Feb-21 04:28N 68°48' E 016°33'0 0.0
2018-Feb-21 03:58N 68°48' E 016°33'0 0.3
2018-Feb-21 03:29N 68°48' E 016°33'0 0.2
2018-Feb-21 03:00N 68°48' E 016°34'3 5.8
2018-Feb-21 02:29N 68°51' E 016°35'4 8.3
2018-Feb-21 02:00N 68°53' E 016°26'4 8.3
2018-Feb-21 01:30N 68°56' E 016°17'4 8.3
2018-Feb-21 00:59N 68°57' E 016°06'4 8.6
2018-Feb-21 00:30N 68°59' E 015°55'4 8.8
2018-Feb-20 23:59N 68°59' E 015°43'4 8.4
2018-Feb-20 23:29N 68°55' E 015°35'4 8.9
2018-Feb-20 23:00N 68°51' E 015°30'4 8.7
2018-Feb-20 22:30N 68°47' E 015°26'5 9.2
2018-Feb-20 22:00N 68°43' E 015°26'5 9.0
2018-Feb-20 21:29N 68°38' E 015°23'3 5.9
2018-Feb-20 21:00N 68°36' E 015°20'0 0.0
2018-Feb-20 20:30N 68°36' E 015°20'0 0.0
2018-Feb-20 20:00N 68°36' E 015°20'0 0.0
2018-Feb-20 19:30N 68°36' E 015°20'4 7.3
2018-Feb-20 19:00N 68°39' E 015°23'5 9.4
2018-Feb-20 18:30N 68°44' E 015°25'5 9.9
2018-Feb-20 18:00N 68°48' E 015°27'510.3
2018-Feb-20 17:29N 68°53' E 015°33'510.4
2018-Feb-20 17:00N 68°58' E 015°38'5 9.6
2018-Feb-20 16:30N 68°59' E 015°52'510.5
2018-Feb-20 16:00N 68°57' E 016°06'510.8
2018-Feb-20 15:30N 68°55' E 016°19'610.7
2018-Feb-20 14:59N 68°52' E 016°31'4 8.0
2018-Feb-20 14:30N 68°48' E 016°33'0 0.4
2018-Feb-20 14:00N 68°48' E 016°33'0 0.0
2018-Feb-20 13:28N 68°48' E 016°33'0 0.0
2018-Feb-20 12:58N 68°48' E 016°33'0 0.0
2018-Feb-20 12:28N 68°48' E 016°33'0 0.0
2018-Feb-20 11:58N 68°48' E 016°33'0 0.0
2018-Feb-20 11:28N 68°48' E 016°33'0 0.0
2018-Feb-20 10:58N 68°48' E 016°33'0 0.0
2018-Feb-20 10:28N 68°48' E 016°33'0 0.0
2018-Feb-20 09:59N 68°48' E 016°33'0 0.0
2018-Feb-20 09:29N 68°48' E 016°33'0 0.0
2018-Feb-20 08:59N 68°48' E 016°33'0 0.0
2018-Feb-20 08:29N 68°48' E 016°33'0 0.0
2018-Feb-20 07:58N 68°48' E 016°33'0 0.0
2018-Feb-20 07:28N 68°48' E 016°33'0 0.0
2018-Feb-20 06:58N 68°48' E 016°33'0 0.0
2018-Feb-20 06:28N 68°48' E 016°33'0 0.0
2018-Feb-20 05:58N 68°48' E 016°33'0 0.0
2018-Feb-20 05:28N 68°48' E 016°33'0 0.0
2018-Feb-20 04:59N 68°48' E 016°33'0 0.0
2018-Feb-20 04:29N 68°48' E 016°33'0 0.0
2018-Feb-20 03:54N 68°48' E 016°33'0 0.0
2018-Feb-20 03:30N 68°48' E 016°33'0 0.0
2018-Feb-20 02:59N 68°48' E 016°33'0 0.0
2018-Feb-20 02:29N 68°48' E 016°33'2 4.7
2018-Feb-20 02:00N 68°50' E 016°36'4 7.4
2018-Feb-20 01:30N 68°52' E 016°28'4 8.2
2018-Feb-20 01:00N 68°55' E 016°20'4 8.2
2018-Feb-20 00:30N 68°57' E 016°10'4 8.5
2018-Feb-20 00:00N 68°58' E 015°59'4 8.4
2018-Feb-19 23:29N 68°59' E 015°47'4 8.0
2018-Feb-19 23:00N 68°57' E 015°37'4 8.8
2018-Feb-19 22:30N 68°53' E 015°32'4 8.7
2018-Feb-19 22:00N 68°49' E 015°27'4 8.7
2018-Feb-19 21:30N 68°45' E 015°25'4 8.7
2018-Feb-19 21:00N 68°40' E 015°26'4 8.7
2018-Feb-19 20:30N 68°36' E 015°21'1 1.6
2018-Feb-19 19:57N 68°36' E 015°20'0 0.0
2018-Feb-19 19:30N 68°36' E 015°20'2 4.1
2018-Feb-19 19:00N 68°38' E 015°22'510.0
2018-Feb-19 18:30N 68°42' E 015°26'510.1
2018-Feb-19 18:00N 68°47' E 015°26'510.2
2018-Feb-19 17:30N 68°52' E 015°31'510.5
2018-Feb-19 17:00N 68°57' E 015°37'5 9.4
2018-Feb-19 16:30N 68°59' E 015°49'510.2
2018-Feb-19 16:00N 68°58' E 016°03'510.7
2018-Feb-19 15:29N 68°56' E 016°17'510.8
2018-Feb-19 14:59N 68°52' E 016°28'4 8.7
2018-Feb-19 14:30N 68°49' E 016°35'1 1.4
2018-Feb-19 13:54N 68°48' E 016°34'0 0.2
2018-Feb-19 13:30N 68°48' E 016°34'0 0.0
2018-Feb-19 12:58N 68°48' E 016°34'0 0.8
2018-Feb-19 12:28N 68°48' E 016°33'0 0.0
2018-Feb-19 11:58N 68°48' E 016°33'0 0.0
2018-Feb-19 11:30N 68°48' E 016°33'0 0.0
2018-Feb-19 10:59N 68°48' E 016°33'0 0.0
2018-Feb-19 10:29N 68°48' E 016°33'0 0.0
2018-Feb-19 09:59N 68°48' E 016°33'0 0.0
2018-Feb-19 09:29N 68°48' E 016°33'0 0.0
2018-Feb-19 08:59N 68°48' E 016°33'0 0.0
2018-Feb-19 08:29N 68°48' E 016°33'0 0.0
2018-Feb-19 07:58N 68°48' E 016°33'0 0.0
2018-Feb-19 07:28N 68°48' E 016°33'0 0.0
2018-Feb-19 07:00N 68°48' E 016°33'0 0.0
2018-Feb-19 06:30N 68°48' E 016°33'0 0.0
2018-Feb-19 05:58N 68°48' E 016°33'0 0.0
2018-Feb-19 05:28N 68°48' E 016°33'0 0.0
2018-Feb-19 05:00N 68°48' E 016°33'0 0.0
2018-Feb-19 04:30N 68°48' E 016°33'0 0.0
2018-Feb-19 04:00N 68°48' E 016°33'0 0.0
2018-Feb-19 03:30N 68°48' E 016°33'0 0.0
2018-Feb-19 03:00N 68°48' E 016°33'0 0.0
2018-Feb-19 02:28N 68°48' E 016°33'0 0.0
2018-Feb-19 02:00N 68°48' E 016°33'0 0.0
2018-Feb-19 01:30N 68°48' E 016°33'0 0.0
2018-Feb-19 01:00N 68°48' E 016°33'0 0.0
2018-Feb-19 00:28N 68°48' E 016°33'0 0.0
2018-Feb-18 23:58N 68°48' E 016°33'1 2.1
2018-Feb-18 23:30N 68°48' E 016°34'4 8.7
2018-Feb-18 23:00N 68°53' E 016°39'4 8.4
2018-Feb-18 22:30N 68°57' E 016°38'4 7.7
2018-Feb-18 22:00N 69°00' E 016°35'1 2.1
2018-Feb-18 21:28N 69°01' E 016°33'0 0.0
2018-Feb-18 20:58N 69°01' E 016°33'0 0.0
2018-Feb-18 20:23N 69°01' E 016°33'0 0.0
2018-Feb-18 19:57N 69°01' E 016°33'0 0.2
2018-Feb-18 19:30N 69°01' E 016°33'0 0.2
2018-Feb-18 19:00N 69°01' E 016°33'2 3.0
2018-Feb-18 18:30N 69°00' E 016°36'510.5
2018-Feb-18 17:59N 68°58' E 016°49'510.5
2018-Feb-18 17:30N 68°54' E 016°59'4 8.4
2018-Feb-18 17:00N 68°50' E 017°04'0 0.1
2018-Feb-18 16:30N 68°50' E 017°04'0 0.0
2018-Feb-18 16:00N 68°50' E 017°04'0 0.0
2018-Feb-18 15:29N 68°50' E 017°04'0 0.0
2018-Feb-18 15:00N 68°50' E 017°04'0 0.0
2018-Feb-18 14:30N 68°50' E 017°04'0 0.0
2018-Feb-18 14:00N 68°50' E 017°04'0 0.0
2018-Feb-18 13:30N 68°50' E 017°04'0 0.0
2018-Feb-18 13:00N 68°50' E 017°04'0 0.0
2018-Feb-18 12:25N 68°50' E 017°04'0 0.0
2018-Feb-18 11:54N 68°50' E 017°04'0 0.0
2018-Feb-18 11:30N 68°50' E 017°04'0 0.0
2018-Feb-18 11:00N 68°50' E 017°04'0 0.0
2018-Feb-18 10:29N 68°50' E 017°04'0 0.0
2018-Feb-18 09:59N 68°50' E 017°04'0 0.0
2018-Feb-18 09:29N 68°50' E 017°04'0 0.0
2018-Feb-18 08:59N 68°50' E 017°04'0 0.0
2018-Feb-18 08:29N 68°50' E 017°04'0 0.0
2018-Feb-18 07:59N 68°50' E 017°04'0 0.0
2018-Feb-18 07:29N 68°50' E 017°04'0 0.0
2018-Feb-18 07:00N 68°50' E 017°04'0 0.0
2018-Feb-18 06:29N 68°50' E 017°04'0 0.0
2018-Feb-18 05:58N 68°50' E 017°04'0 0.0
2018-Feb-18 05:28N 68°50' E 017°04'0 0.0
2018-Feb-18 05:00N 68°50' E 017°04'0 0.0
2018-Feb-18 04:30N 68°50' E 017°04'0 0.0
2018-Feb-18 04:00N 68°50' E 017°04'0 0.0
2018-Feb-18 03:29N 68°50' E 017°04'0 0.0
2018-Feb-18 02:59N 68°50' E 017°04'0 0.0
2018-Feb-18 02:27N 68°50' E 017°04'0 0.0
2018-Feb-18 01:59N 68°50' E 017°04'0 0.0
2018-Feb-18 01:30N 68°50' E 017°04'0 0.0
2018-Feb-18 00:58N 68°50' E 017°04'0 0.0
2018-Feb-18 00:28N 68°50' E 017°04'0 0.0
2018-Feb-17 23:58N 68°50' E 017°04'0 0.0
2018-Feb-17 23:30N 68°50' E 017°04'0 0.0
2018-Feb-17 23:00N 68°50' E 017°04'0 0.0
2018-Feb-17 22:30N 68°50' E 017°04'0 0.0
2018-Feb-17 21:59N 68°50' E 017°04'0 0.0
2018-Feb-17 21:26N 68°50' E 017°04'0 0.0
2018-Feb-17 21:00N 68°50' E 017°04'0 0.0
2018-Feb-17 20:25N 68°50' E 017°04'0 0.0
2018-Feb-17 19:55N 68°50' E 017°04'0 0.0
2018-Feb-17 19:30N 68°50' E 017°04'0 0.0
2018-Feb-17 18:58N 68°50' E 017°04'0 0.0
2018-Feb-17 18:29N 68°50' E 017°04'0 0.0
2018-Feb-17 17:59N 68°50' E 017°04'0 0.0
2018-Feb-17 17:28N 68°50' E 017°04'0 0.0
2018-Feb-17 16:58N 68°50' E 017°04'0 0.0
2018-Feb-17 16:28N 68°50' E 017°04'0 0.0
2018-Feb-17 15:58N 68°50' E 017°04'0 0.0
2018-Feb-17 15:27N 68°50' E 017°04'0 0.0
2018-Feb-17 15:00N 68°50' E 017°04'0 0.0
2018-Feb-17 14:23N 68°50' E 017°04'0 0.0
2018-Feb-17 13:59N 68°50' E 017°04'0 0.0
2018-Feb-17 13:29N 68°50' E 017°04'0 0.0
2018-Feb-17 12:58N 68°50' E 017°04'0 0.0
2018-Feb-17 12:28N 68°50' E 017°04'0 0.0
2018-Feb-17 11:58N 68°50' E 017°04'0 0.0
2018-Feb-17 11:29N 68°50' E 017°04'0 0.0
2018-Feb-17 10:59N 68°50' E 017°04'0 0.0
2018-Feb-17 10:27N 68°50' E 017°04'0 0.0
2018-Feb-17 09:57N 68°50' E 017°04'0 0.0
2018-Feb-17 09:30N 68°50' E 017°04'0 0.0
2018-Feb-17 08:59N 68°50' E 017°04'0 0.0
2018-Feb-17 08:28N 68°50' E 017°04'0 0.0
2018-Feb-17 07:58N 68°50' E 017°04'0 0.0
2018-Feb-17 07:30N 68°50' E 017°04'0 0.0
2018-Feb-17 06:55N 68°50' E 017°04'0 0.0
2018-Feb-17 06:27N 68°50' E 017°04'0 0.0
2018-Feb-17 05:59N 68°50' E 017°04'0 0.0
2018-Feb-17 05:29N 68°50' E 017°04'0 0.0
2018-Feb-17 05:00N 68°50' E 017°04'0 0.0
2018-Feb-17 04:30N 68°50' E 017°04'0 0.0
2018-Feb-17 03:58N 68°50' E 017°04'0 0.0
2018-Feb-17 03:28N 68°50' E 017°04'0 0.0
2018-Feb-17 02:58N 68°50' E 017°04'0 0.0
2018-Feb-17 02:30N 68°50' E 017°04'0 0.0
2018-Feb-17 02:00N 68°50' E 017°04'0 0.0
2018-Feb-17 01:30N 68°50' E 017°04'0 0.0
2018-Feb-17 01:00N 68°50' E 017°04'0 0.0
2018-Feb-17 00:30N 68°50' E 017°04'0 0.0
2018-Feb-17 00:00N 68°50' E 017°04'0 0.0
2018-Feb-16 23:30N 68°50' E 017°04'0 0.0
2018-Feb-16 23:00N 68°50' E 017°04'0 0.0
2018-Feb-16 22:28N 68°50' E 017°04'0 0.0
2018-Feb-16 21:59N 68°50' E 017°04'0 0.0
2018-Feb-16 21:29N 68°50' E 017°04'0 0.0
2018-Feb-16 21:00N 68°50' E 017°04'0 0.0
2018-Feb-16 20:26N 68°50' E 017°04'2 4.7
2018-Feb-16 20:00N 68°52' E 017°03'510.2
2018-Feb-16 19:30N 68°56' E 016°54'510.0
2018-Feb-16 19:00N 68°59' E 016°43'2 4.8
2018-Feb-16 18:29N 68°57' E 016°37'0 0.0
2018-Feb-16 17:58N 68°57' E 016°37'0 0.0
2018-Feb-16 17:30N 68°57' E 016°37'0 0.0
2018-Feb-16 17:00N 68°57' E 016°37'0 0.0
2018-Feb-16 16:29N 68°57' E 016°37'0 0.0
2018-Feb-16 15:59N 68°57' E 016°37'0 0.0
2018-Feb-16 15:29N 68°57' E 016°37'0 0.1
2018-Feb-16 15:00N 68°57' E 016°37'3 5.5
2018-Feb-16 14:30N 68°59' E 016°44'4 8.7
2018-Feb-16 14:00N 68°60' E 016°56'5 8.9
2018-Feb-16 13:29N 68°60' E 017°08'4 8.3
2018-Feb-16 13:00N 69°02' E 017°18'4 8.7
2018-Feb-16 12:30N 69°05' E 017°26'4 8.6
2018-Feb-16 11:59N 69°07' E 017°37'4 8.7
2018-Feb-16 11:30N 69°09' E 017°48'4 8.7
2018-Feb-16 10:59N 69°11' E 017°60'4 7.4
2018-Feb-16 10:30N 69°14' E 017°58'4 8.3
2018-Feb-16 10:00N 69°19' E 017°59'4 8.5
2018-Feb-16 09:30N 69°22' E 018°06'4 8.4
2018-Feb-16 09:00N 69°26' E 018°07'4 7.6
2018-Feb-16 08:29N 69°29' E 018°14'4 8.4
2018-Feb-16 07:59N 69°31' E 018°25'4 8.2
2018-Feb-16 07:30N 69°32' E 018°35'4 7.6
2018-Feb-16 07:00N 69°34' E 018°46'4 8.4
2018-Feb-16 06:30N 69°37' E 018°54'4 7.4
2018-Feb-16 06:00N 69°40' E 018°60'4 8.4
2018-Feb-16 05:30N 69°44' E 019°04'4 8.0
2018-Feb-16 05:00N 69°46' E 019°13'4 8.3
2018-Feb-16 04:29N 69°48' E 019°24'4 8.5
2018-Feb-16 04:00N 69°49' E 019°36'4 7.0
2018-Feb-16 03:30N 69°48' E 019°45'4 8.8
2018-Feb-16 03:00N 69°43' E 019°45'4 8.8
2018-Feb-16 02:30N 69°39' E 019°45'2 4.7
2018-Feb-16 02:00N 69°37' E 019°44'0 0.0
2018-Feb-16 01:30N 69°37' E 019°44'0 0.0
2018-Feb-16 00:59N 69°37' E 019°44'0 0.0
2018-Feb-16 00:29N 69°37' E 019°44'0 0.0
2018-Feb-15 23:59N 69°37' E 019°44'3 6.6
2018-Feb-15 23:30N 69°40' E 019°45'510.1
2018-Feb-15 22:59N 69°45' E 019°45'5 9.1
2018-Feb-15 22:30N 69°49' E 019°41'510.6
2018-Feb-15 22:00N 69°48' E 019°27'510.7
2018-Feb-15 21:30N 69°46' E 019°12'510.3
2018-Feb-15 21:00N 69°42' E 019°03'510.9
2018-Feb-15 20:30N 69°37' E 018°55'611.2
2018-Feb-15 20:00N 69°33' E 018°44'611.1
2018-Feb-15 19:30N 69°31' E 018°29'510.4
2018-Feb-15 18:59N 69°29' E 018°15'5 9.3
2018-Feb-15 18:29N 69°26' E 018°07'510.2
2018-Feb-15 18:00N 69°21' E 018°05'5 9.7
2018-Feb-15 17:29N 69°16' E 017°58'5 9.9
2018-Feb-15 17:01N 69°12' E 018°01'5 9.5
2018-Feb-15 16:30N 69°09' E 017°50'510.3
2018-Feb-15 15:59N 69°06' E 017°37'510.3
2018-Feb-15 15:30N 69°02' E 017°31'510.2
2018-Feb-15 15:00N 68°57' E 017°27'4 8.1
2018-Feb-15 14:30N 68°53' E 017°32'4 8.6
2018-Feb-15 13:59N 68°54' E 017°43'0 0.0
2018-Feb-15 13:29N 68°54' E 017°43'0 0.0
2018-Feb-15 12:58N 68°54' E 017°43'0 0.0
2018-Feb-15 12:28N 68°54' E 017°43'0 0.0
2018-Feb-15 11:58N 68°54' E 017°43'0 0.0
2018-Feb-15 11:30N 68°54' E 017°43'0 0.0
2018-Feb-15 11:00N 68°54' E 017°43'0 0.0
2018-Feb-15 10:30N 68°54' E 017°43'0 0.0
2018-Feb-15 10:00N 68°54' E 017°43'0 0.0
2018-Feb-15 09:28N 68°54' E 017°43'0 0.0
2018-Feb-15 08:58N 68°54' E 017°43'0 0.0
2018-Feb-15 08:29N 68°54' E 017°43'0 0.0
2018-Feb-15 08:00N 68°54' E 017°43'1 2.6
2018-Feb-15 07:30N 68°54' E 017°40'4 8.5
2018-Feb-15 07:00N 68°53' E 017°28'4 8.2
2018-Feb-15 06:30N 68°56' E 017°19'4 8.8
2018-Feb-15 06:00N 68°56' E 017°07'4 8.8
2018-Feb-15 05:30N 68°55' E 016°55'4 8.7
2018-Feb-15 05:00N 68°54' E 016°43'4 8.3
2018-Feb-15 04:30N 68°52' E 016°33'4 8.1
2018-Feb-15 04:00N 68°54' E 016°23'4 8.3
2018-Feb-15 03:30N 68°56' E 016°13'4 7.9
2018-Feb-15 03:00N 68°58' E 016°03'4 8.0
2018-Feb-15 02:30N 68°59' E 015°52'5 8.9
2018-Feb-15 01:59N 68°58' E 015°39'4 8.3
2018-Feb-15 01:30N 68°55' E 015°34'4 8.6
2018-Feb-15 00:59N 68°51' E 015°29'4 9.2
2018-Feb-15 00:30N 68°46' E 015°26'5 9.3
2018-Feb-14 23:59N 68°42' E 015°26'4 8.9
2018-Feb-14 23:29N 68°37' E 015°22'2 3.6
2018-Feb-14 22:58N 68°36' E 015°20'0 0.0
2018-Feb-14 22:28N 68°36' E 015°20'0 0.0
2018-Feb-14 21:56N 68°36' E 015°20'3 7.1
2018-Feb-14 21:30N 68°39' E 015°23'5 9.4
2018-Feb-14 21:00N 68°43' E 015°26'5 9.9
2018-Feb-14 20:30N 68°48' E 015°26'510.3
2018-Feb-14 20:00N 68°53' E 015°32'510.1
2018-Feb-14 19:30N 68°57' E 015°37'4 8.9
2018-Feb-14 19:00N 68°59' E 015°49'510.2
2018-Feb-14 18:30N 68°58' E 016°03'510.5
2018-Feb-14 18:00N 68°56' E 016°16'510.6
2018-Feb-14 17:30N 68°53' E 016°28'510.1
2018-Feb-14 17:00N 68°50' E 016°40'510.6
2018-Feb-14 16:30N 68°45' E 016°41'510.6
2018-Feb-14 16:00N 68°39' E 016°38'510.4
2018-Feb-14 15:30N 68°34' E 016°34'2 4.6
2018-Feb-14 14:58N 68°32' E 016°38'0 0.0
2018-Feb-14 14:30N 68°32' E 016°38'0 0.0
2018-Feb-14 14:00N 68°32' E 016°38'0 0.0
2018-Feb-14 13:30N 68°32' E 016°38'0 0.0
2018-Feb-14 13:00N 68°32' E 016°38'0 0.0
2018-Feb-14 12:28N 68°32' E 016°38'0 0.0
2018-Feb-14 11:58N 68°32' E 016°38'0 0.0
2018-Feb-14 11:30N 68°32' E 016°38'0 0.0
2018-Feb-14 11:00N 68°32' E 016°38'0 0.0
2018-Feb-14 10:30N 68°32' E 016°38'0 0.0
2018-Feb-14 10:00N 68°32' E 016°38'0 0.0
2018-Feb-14 09:30N 68°32' E 016°38'0 0.0
2018-Feb-14 08:58N 68°32' E 016°38'0 0.0
2018-Feb-14 08:29N 68°32' E 016°38'1 2.9
2018-Feb-14 08:00N 68°34' E 016°35'4 7.9
2018-Feb-14 07:30N 68°37' E 016°34'5 8.5
2018-Feb-14 06:58N 68°42' E 016°40'4 7.8
2018-Feb-14 06:30N 68°45' E 016°38'3 6.3
2018-Feb-14 06:00N 68°48' E 016°34'0 0.6
2018-Feb-14 05:28N 68°48' E 016°33'0 0.0
2018-Feb-14 05:00N 68°48' E 016°33'0 0.0
2018-Feb-14 04:30N 68°48' E 016°33'0 0.0
2018-Feb-14 04:00N 68°48' E 016°33'0 0.0
2018-Feb-14 03:30N 68°48' E 016°33'0 0.0
2018-Feb-14 02:59N 68°48' E 016°33'0 0.0
2018-Feb-14 02:30N 68°48' E 016°33'0 0.0
2018-Feb-14 01:53N 68°48' E 016°33'0 0.0
2018-Feb-14 01:30N 68°48' E 016°33'0 0.0
2018-Feb-14 01:00N 68°48' E 016°33'0 0.0
2018-Feb-14 00:28N 68°48' E 016°33'0 0.0
2018-Feb-13 23:58N 68°48' E 016°33'1 1.2
2018-Feb-13 23:30N 68°48' E 016°34'3 6.0
2018-Feb-13 23:00N 68°51' E 016°32'4 8.4
2018-Feb-13 22:30N 68°54' E 016°23'4 8.3
2018-Feb-13 21:59N 68°56' E 016°14'4 8.3
2018-Feb-13 21:29N 68°58' E 016°03'4 8.2
2018-Feb-13 21:00N 68°59' E 015°52'4 8.8
2018-Feb-13 20:30N 68°58' E 015°40'4 8.4
2018-Feb-13 20:00N 68°54' E 015°34'5 8.9
2018-Feb-13 19:28N 68°50' E 015°29'4 8.8
2018-Feb-13 19:00N 68°46' E 015°26'5 9.5
2018-Feb-13 18:30N 68°41' E 015°26'4 8.8
2018-Feb-13 18:00N 68°37' E 015°22'2 3.7
2018-Feb-13 17:29N 68°36' E 015°20'0 0.0
2018-Feb-13 16:59N 68°36' E 015°20'0 0.0
2018-Feb-13 16:29N 68°36' E 015°20'0 0.0
2018-Feb-13 15:59N 68°36' E 015°20'3 5.4
2018-Feb-13 15:28N 68°38' E 015°23'4 9.3
2018-Feb-13 15:00N 68°42' E 015°26'5 9.0
2018-Feb-13 14:30N 68°47' E 015°26'5 9.9
2018-Feb-13 14:00N 68°52' E 015°31'5 9.9
2018-Feb-13 13:30N 68°56' E 015°35'4 8.6
2018-Feb-13 13:00N 68°59' E 015°45'510.1
2018-Feb-13 12:30N 68°58' E 015°59'510.5
2018-Feb-13 11:59N 68°56' E 016°13'510.7
2018-Feb-13 11:30N 68°53' E 016°25'510.1
2018-Feb-13 10:59N 68°50' E 016°36'2 5.1
2018-Feb-13 10:30N 68°48' E 016°33'0 0.0
2018-Feb-13 10:00N 68°48' E 016°33'0 0.0
2018-Feb-13 09:30N 68°48' E 016°33'0 0.0
2018-Feb-13 09:00N 68°48' E 016°33'0 0.0
2018-Feb-13 08:30N 68°48' E 016°33'0 0.0
2018-Feb-13 07:59N 68°48' E 016°33'0 0.0
2018-Feb-13 07:30N 68°48' E 016°33'0 0.0
2018-Feb-13 07:00N 68°48' E 016°33'0 0.0
2018-Feb-13 06:29N 68°48' E 016°33'0 0.0
2018-Feb-13 06:00N 68°48' E 016°33'0 0.0
2018-Feb-13 05:30N 68°48' E 016°33'0 0.0
2018-Feb-13 04:58N 68°48' E 016°33'0 0.0
2018-Feb-13 04:30N 68°48' E 016°33'0 0.0
2018-Feb-13 03:59N 68°48' E 016°33'0 0.0
2018-Feb-13 03:29N 68°48' E 016°33'0 0.0
2018-Feb-13 02:58N 68°48' E 016°33'0 0.0
2018-Feb-13 02:29N 68°48' E 016°33'0 0.0
2018-Feb-13 01:59N 68°48' E 016°33'0 0.0
2018-Feb-13 01:29N 68°48' E 016°33'0 0.0
2018-Feb-13 01:00N 68°48' E 016°33'0 0.0
2018-Feb-13 00:30N 68°48' E 016°33'3 6.4
2018-Feb-13 00:00N 68°50' E 016°40'4 8.3
2018-Feb-12 23:30N 68°53' E 016°48'4 8.3
2018-Feb-12 23:00N 68°55' E 016°57'4 8.4
2018-Feb-12 22:30N 68°58' E 017°06'4 8.6
2018-Feb-12 22:00N 69°01' E 017°15'4 8.5
2018-Feb-12 21:30N 69°04' E 017°22'4 8.4
2018-Feb-12 21:00N 69°06' E 017°32'4 8.7
2018-Feb-12 20:29N 69°08' E 017°43'4 8.8
2018-Feb-12 20:00N 69°10' E 017°54'3 6.6
2018-Feb-12 19:30N 69°13' E 017°59'4 7.9
2018-Feb-12 19:00N 69°17' E 017°58'4 7.9
2018-Feb-12 18:30N 69°20' E 018°03'4 8.0
2018-Feb-12 18:00N 69°24' E 018°06'4 8.2
2018-Feb-12 17:30N 69°28' E 018°08'4 8.4
2018-Feb-12 17:00N 69°30' E 018°18'4 8.6
2018-Feb-12 16:29N 69°32' E 018°30'4 8.6
2018-Feb-12 15:59N 69°33' E 018°42'4 8.8
2018-Feb-12 15:30N 69°36' E 018°52'4 8.4
2018-Feb-12 15:00N 69°39' E 018°59'4 8.5
2018-Feb-12 14:30N 69°43' E 019°04'4 8.2
2018-Feb-12 13:58N 69°46' E 019°12'4 8.5
2018-Feb-12 13:30N 69°48' E 019°23'4 8.7
2018-Feb-12 13:00N 69°49' E 019°35'4 7.0
2018-Feb-12 12:29N 69°48' E 019°45'4 8.8
2018-Feb-12 11:59N 69°43' E 019°45'4 8.8
2018-Feb-12 11:30N 69°39' E 019°45'3 5.3
2018-Feb-12 11:00N 69°37' E 019°44'0 0.0
2018-Feb-12 10:25N 69°37' E 019°44'0 0.0
2018-Feb-12 09:56N 69°37' E 019°44'0 0.0
2018-Feb-12 09:30N 69°37' E 019°44'0 0.1
2018-Feb-12 09:00N 69°37' E 019°44'5 9.6
2018-Feb-12 08:30N 69°41' E 019°45'5 9.9
2018-Feb-12 07:59N 69°46' E 019°49'5 9.7
2018-Feb-12 07:30N 69°50' E 019°55'510.0
2018-Feb-12 07:00N 69°55' E 020°03'5 9.7
2018-Feb-12 06:30N 69°58' E 020°13'5 9.3
2018-Feb-12 06:00N 70°00' E 020°25'4 8.9
2018-Feb-12 05:30N 70°01' E 020°37'5 9.7
2018-Feb-12 05:00N 70°03' E 020°51'5 9.4
2018-Feb-12 04:30N 70°07' E 020°59'4 9.1
2018-Feb-12 04:00N 70°11' E 021°05'5 8.9
2018-Feb-12 03:30N 70°15' E 021°12'510.0
2018-Feb-12 03:00N 70°18' E 021°24'510.0
2018-Feb-12 02:29N 70°22' E 021°34'5 9.5
2018-Feb-12 02:00N 70°25' E 021°45'5 9.8
2018-Feb-12 01:30N 70°26' E 021°59'5 9.9
2018-Feb-12 01:00N 70°27' E 022°13'510.2
2018-Feb-12 00:30N 70°28' E 022°28'5 9.7
2018-Feb-12 00:00N 70°29' E 022°42'5 8.9
2018-Feb-11 23:30N 70°31' E 022°55'5 9.0
2018-Feb-11 23:00N 70°33' E 023°06'4 9.0
2018-Feb-11 22:30N 70°37' E 023°15'5 8.9
2018-Feb-11 21:59N 70°40' E 023°24'4 8.8
2018-Feb-11 21:30N 70°44' E 023°32'4 8.8
2018-Feb-11 21:00N 70°47' E 023°41'5 9.3
2018-Feb-11 20:29N 70°50' E 023°52'5 9.4
2018-Feb-11 20:00N 70°53' E 024°03'5 9.5
2018-Feb-11 19:30N 70°56' E 024°14'5 9.8
2018-Feb-11 19:00N 70°59' E 024°25'4 8.8
2018-Feb-11 18:30N 71°01' E 024°37'510.1
2018-Feb-11 17:58N 70°60' E 024°52'510.0
2018-Feb-11 17:30N 70°59' E 025°07'5 9.9
2018-Feb-11 16:59N 70°59' E 025°23'510.9
2018-Feb-11 16:30N 70°56' E 025°35'5 9.5
2018-Feb-11 16:00N 70°56' E 025°49'5 9.1
2018-Feb-11 15:30N 70°58' E 026°03'  

Dump ship's entire track history